Scarboro, Illinois
Current Conditions -  °F | °C
As of 6:15 AM on Saturday 25 Oct 2014 (Local Time) from KRPJ Reporting Station
Haze Haze  
Wind Chill: 55°   Ceiling: 700
Heat Index: 55°   Visibility: 3mi
Dew Point: 54°   Wind: 6mph
Humidity: 97%   Direction: 240°WSW
Pressure: 29.93"   Gusts: NA
Location:  41.8255°N, 89.0204°W
Report Text: KRPJ 251115Z AUTO 24005KT 3SM BR OVC007 13/12 A2993 RMK AO2 T01250121
Loading
Personal Weather Stations






























Interactive Weather Map
Tropical Storm Tracking
New forecast layout! Learn more

10-Day Weather Forecast

Advertisements
Track Severe Weather on mobile